createdAt,value
2023-05-04T00:01:26.885Z,97.70
2023-05-04T00:03:55.702Z,97.50
2023-05-04T00:06:26.984Z,97.70
2023-05-04T00:08:57.050Z,98.00
2023-05-04T00:11:25.714Z,97.90
2023-05-04T00:13:54.431Z,97.60
2023-05-04T00:16:23.143Z,97.60
2023-05-04T00:18:54.020Z,97.40
2023-05-04T00:21:22.554Z,97.40
2023-05-04T00:23:51.211Z,97.50
2023-05-04T00:26:23.512Z,97.60
2023-05-04T00:28:55.354Z,97.80
2023-05-04T00:31:24.463Z,97.70
2023-05-04T00:33:53.180Z,97.90
2023-05-04T00:36:21.897Z,98.10
2023-05-04T00:38:51.929Z,97.90
2023-05-04T00:41:23.296Z,97.80
2023-05-04T00:43:54.359Z,97.70
2023-05-04T00:46:23.459Z,97.80
2023-05-04T00:48:55.300Z,97.90
2023-05-04T00:51:26.529Z,98.00
2023-05-04T00:53:56.839Z,98.20
2023-05-04T00:56:28.962Z,98.10
2023-05-04T00:58:58.559Z,98.40
2023-05-04T01:01:27.633Z,98.60
2023-05-04T01:03:58.889Z,98.60
2023-05-04T01:06:42.411Z,98.50
2023-05-04T01:09:20.120Z,98.60
2023-05-04T01:11:59.398Z,98.50
2023-05-04T01:14:28.775Z,98.50
2023-05-04T01:17:00.859Z,99.20
2023-05-04T01:19:29.625Z,98.80
2023-05-04T01:21:59.612Z,98.70
2023-05-04T01:24:30.368Z,98.50
2023-05-04T01:27:05.144Z,98.60
2023-05-04T01:29:40.197Z,98.90
2023-05-04T01:32:10.134Z,99.00
2023-05-04T01:34:41.699Z,98.70
2023-05-04T01:37:12.253Z,99.00
2023-05-04T01:39:43.208Z,99.10
2023-05-04T01:42:11.858Z,99.00
2023-05-04T01:44:42.560Z,98.90
2023-05-04T01:47:13.513Z,98.80
2023-05-04T01:49:44.487Z,98.90
2023-05-04T01:52:14.805Z,99.30
2023-05-04T01:54:43.425Z,99.40
2023-05-04T01:57:12.294Z,99.70
2023-05-04T01:59:40.837Z,99.90
2023-05-04T02:02:10.693Z,99.90
2023-05-04T02:04:39.427Z,99.90
2023-05-04T02:07:08.121Z,99.90
2023-05-04T02:09:38.345Z,99.90
2023-05-04T02:12:09.509Z,99.90
2023-05-04T02:14:38.625Z,99.90
2023-05-04T02:17:07.670Z,99.90
2023-05-04T02:19:39.138Z,99.90
2023-05-04T02:22:08.645Z,99.90
2023-05-04T02:24:40.748Z,99.90
2023-05-04T02:27:09.392Z,99.90
2023-05-04T02:29:38.382Z,99.90
2023-05-04T02:32:07.106Z,99.90
2023-05-04T02:34:36.409Z,99.90
2023-05-04T02:37:07.390Z,99.90
2023-05-04T02:39:41.530Z,99.90
2023-05-04T02:42:10.240Z,99.90
2023-05-04T02:44:38.901Z,99.90
2023-05-04T02:47:07.626Z,99.90
2023-05-04T02:49:36.158Z,99.90
2023-05-04T02:52:05.173Z,99.90
2023-05-04T02:54:33.718Z,99.90
2023-05-04T02:57:04.417Z,99.90
2023-05-04T02:59:32.963Z,99.90
2023-05-04T03:02:01.546Z,99.90
2023-05-04T03:04:30.182Z,99.90
2023-05-04T03:06:58.839Z,99.90
2023-05-04T03:09:27.504Z,99.90
2023-05-04T03:11:58.118Z,99.90
2023-05-04T03:14:28.255Z,99.90
2023-05-04T03:16:57.228Z,99.90
2023-05-04T03:19:28.326Z,99.90
2023-05-04T03:21:59.479Z,99.90
2023-05-04T03:24:28.094Z,99.90
2023-05-04T03:26:57.511Z,99.90
2023-05-04T03:29:27.778Z,99.90
2023-05-04T03:31:57.601Z,99.90
2023-05-04T03:34:26.582Z,99.90
2023-05-04T03:37:01.489Z,99.90
2023-05-04T03:39:30.152Z,99.90
2023-05-04T03:41:58.737Z,99.90
2023-05-04T03:44:31.991Z,99.90
2023-05-04T03:47:00.718Z,99.90
2023-05-04T03:49:29.300Z,99.90
2023-05-04T03:51:57.803Z,99.90
2023-05-04T03:54:28.509Z,99.90
2023-05-04T03:56:57.129Z,99.90
2023-05-04T03:59:25.965Z,99.90
2023-05-04T04:01:58.295Z,99.90
2023-05-04T04:04:27.412Z,99.90
2023-05-04T04:06:58.218Z,99.90
2023-05-04T04:09:31.520Z,99.90
2023-05-04T04:12:00.153Z,99.90
2023-05-04T04:14:28.828Z,99.90
2023-05-04T04:16:58.794Z,99.90
2023-05-04T04:19:27.398Z,99.90
2023-05-04T04:21:56.041Z,99.90
2023-05-04T04:24:24.613Z,99.90
2023-05-04T04:26:53.343Z,99.90
2023-05-04T04:29:21.787Z,99.90
2023-05-04T04:31:50.408Z,99.90
2023-05-04T04:34:22.330Z,99.90
2023-05-04T04:36:53.322Z,99.90
2023-05-04T04:39:22.532Z,99.90
2023-05-04T04:41:51.174Z,99.90
2023-05-04T04:44:21.894Z,99.90
2023-05-04T04:46:51.160Z,99.90
2023-05-04T04:49:23.431Z,99.90
2023-05-04T04:51:53.000Z,99.90
2023-05-04T04:54:21.594Z,99.80
2023-05-04T04:56:50.120Z,99.70
2023-05-04T04:59:24.681Z,99.10
2023-05-04T05:01:57.993Z,98.80
2023-05-04T05:04:28.217Z,98.50
2023-05-04T05:06:56.981Z,98.10
2023-05-04T05:09:26.038Z,97.90
2023-05-04T05:11:54.610Z,97.70
2023-05-04T05:14:23.185Z,97.50
2023-05-04T05:16:51.778Z,96.10
2023-05-04T05:19:20.336Z,95.90
2023-05-04T05:21:50.454Z,95.20
2023-05-04T05:24:19.229Z,95.50
2023-05-04T05:26:49.984Z,94.00
2023-05-04T05:29:20.661Z,93.60
2023-05-04T05:31:49.344Z,93.70
2023-05-04T05:34:17.889Z,93.80
2023-05-04T05:36:46.379Z,94.60
2023-05-04T05:39:16.408Z,94.90
2023-05-04T05:41:44.973Z,95.10
2023-05-04T05:44:15.971Z,95.50
2023-05-04T05:46:46.803Z,95.80
2023-05-04T05:49:15.389Z,95.30
2023-05-04T05:51:46.105Z,95.20
2023-05-04T05:54:16.686Z,95.20
2023-05-04T05:56:47.546Z,94.50
2023-05-04T05:59:16.877Z,94.00
2023-05-04T06:01:45.423Z,93.70
2023-05-04T06:04:14.203Z,93.90
2023-05-04T06:06:45.130Z,92.60
2023-05-04T06:09:16.011Z,93.80
2023-05-04T06:11:44.774Z,93.70
2023-05-04T06:14:13.451Z,93.50
2023-05-04T06:16:41.957Z,92.00
2023-05-04T06:19:10.466Z,90.60
2023-05-04T06:21:39.020Z,87.90
2023-05-04T06:24:07.632Z,84.20
2023-05-04T06:26:37.650Z,82.70
2023-05-04T06:29:05.978Z,81.20
2023-05-04T06:31:34.693Z,83.10
2023-05-04T06:34:03.064Z,85.30
2023-05-04T06:36:33.755Z,80.30
2023-05-04T06:39:02.178Z,76.70
2023-05-04T06:41:30.698Z,77.60
2023-05-04T06:44:00.707Z,80.90
2023-05-04T06:46:29.058Z,78.70
2023-05-04T06:48:58.318Z,76.90
2023-05-04T06:51:26.927Z,72.50
2023-05-04T06:53:55.572Z,70.30
2023-05-04T06:56:26.878Z,69.00
2023-05-04T06:58:55.494Z,69.00
2023-05-04T07:01:25.643Z,69.30
2023-05-04T07:03:54.479Z,66.70
2023-05-04T07:06:26.395Z,69.40
2023-05-04T07:08:54.921Z,64.70
2023-05-04T07:11:23.533Z,65.60
2023-05-04T07:13:52.027Z,67.40
2023-05-04T07:16:20.602Z,66.80
2023-05-04T07:18:50.692Z,67.10
2023-05-04T07:23:55.810Z,60.30
2023-05-04T07:26:24.652Z,59.00
2023-05-04T07:28:53.221Z,60.60
2023-05-04T07:31:21.824Z,62.10
2023-05-04T07:33:52.634Z,58.30
2023-05-04T07:36:22.149Z,57.10
2023-05-04T07:38:51.381Z,61.40
2023-05-04T07:41:22.546Z,59.90
2023-05-04T07:43:51.179Z,59.90
2023-05-04T07:46:19.823Z,60.00
2023-05-04T07:48:49.375Z,60.30
2023-05-04T07:51:20.012Z,59.90
2023-05-04T07:53:48.615Z,60.60
2023-05-04T07:56:19.236Z,60.70
2023-05-04T07:58:47.865Z,61.10
2023-05-04T08:01:16.510Z,62.50
2023-05-04T08:03:45.392Z,58.90
2023-05-04T08:06:14.188Z,58.20
2023-05-04T08:08:44.814Z,57.60
2023-05-04T08:11:20.399Z,56.00
2023-05-04T08:13:52.406Z,56.20
2023-05-04T08:16:21.017Z,57.00
2023-05-04T08:18:49.529Z,55.60
2023-05-04T08:21:18.054Z,57.80
2023-05-04T08:23:48.631Z,58.40
2023-05-04T08:26:17.242Z,60.10
2023-05-04T08:28:46.787Z,61.00
2023-05-04T08:31:15.331Z,57.10
2023-05-04T08:33:43.938Z,59.20
2023-05-04T08:36:12.839Z,58.10
2023-05-04T08:38:41.535Z,58.60
2023-05-04T08:41:11.812Z,58.00
2023-05-04T08:43:40.420Z,57.90
2023-05-04T08:46:09.910Z,57.90
2023-05-04T08:48:38.822Z,58.70
2023-05-04T08:51:08.563Z,58.60
2023-05-04T08:53:39.363Z,58.70
2023-05-04T08:56:14.762Z,58.20
2023-05-04T08:58:51.818Z,59.10
2023-05-04T09:01:22.811Z,58.50
2023-05-04T09:03:52.467Z,58.80
2023-05-04T09:06:21.518Z,56.40
2023-05-04T09:08:50.043Z,56.10
2023-05-04T09:11:22.609Z,55.50
2023-05-04T09:13:51.797Z,54.10
2023-05-04T09:16:21.067Z,57.20
2023-05-04T09:18:49.698Z,53.00
2023-05-04T09:21:18.182Z,54.10
2023-05-04T09:23:48.562Z,51.20
2023-05-04T09:26:27.610Z,51.60
2023-05-04T09:29:13.527Z,51.30
2023-05-04T09:31:47.258Z,51.70
2023-05-04T09:34:20.362Z,53.20
2023-05-04T09:37:00.657Z,52.00
2023-05-04T09:39:30.080Z,50.30
2023-05-04T09:41:58.779Z,51.10
2023-05-04T09:44:29.941Z,51.80
2023-05-04T09:46:59.928Z,54.70
2023-05-04T09:49:33.025Z,52.00
2023-05-04T09:52:03.046Z,53.00
2023-05-04T09:54:35.089Z,52.40
2023-05-04T09:57:13.114Z,51.30
2023-05-04T09:59:43.906Z,54.20
2023-05-04T10:02:22.783Z,52.10
2023-05-04T10:04:52.785Z,51.50
2023-05-04T10:07:21.930Z,51.00
2023-05-04T10:09:51.932Z,51.40
2023-05-04T10:12:20.822Z,49.60
2023-05-04T10:14:50.855Z,50.10
2023-05-04T10:17:33.661Z,51.30
2023-05-04T10:20:23.421Z,50.00
2023-05-04T10:23:17.822Z,50.10
2023-05-04T10:26:06.001Z,50.50
2023-05-04T10:28:50.097Z,50.70
2023-05-04T10:31:20.180Z,50.40
2023-05-04T10:33:48.825Z,51.00
2023-05-04T10:36:17.370Z,50.70
2023-05-04T10:38:46.523Z,48.90
2023-05-04T10:41:16.705Z,50.30
2023-05-04T10:43:49.195Z,49.00
2023-05-04T10:46:21.337Z,51.00
2023-05-04T10:48:50.440Z,49.60
2023-05-04T10:51:20.808Z,50.00
2023-05-04T10:53:52.409Z,50.40
2023-05-04T10:56:25.903Z,50.30
2023-05-04T10:58:55.245Z,49.70
2023-05-04T11:01:27.532Z,51.10
2023-05-04T11:03:56.158Z,53.70
2023-05-04T11:06:26.403Z,53.70
2023-05-04T11:09:05.438Z,53.40
2023-05-04T11:11:38.390Z,53.10
2023-05-04T11:14:07.227Z,52.30
2023-05-04T11:16:39.525Z,50.80
2023-05-04T11:19:12.586Z,52.90
2023-05-04T11:21:42.294Z,51.20
2023-05-04T11:24:11.411Z,53.30
2023-05-04T11:26:49.147Z,53.60
2023-05-04T11:29:18.819Z,53.40
2023-05-04T11:31:57.329Z,52.60
2023-05-04T11:34:26.193Z,52.30
2023-05-04T11:36:54.880Z,54.70
2023-05-04T11:39:23.508Z,58.60
2023-05-04T11:41:55.411Z,58.30
2023-05-04T11:44:24.644Z,55.90
2023-05-04T11:46:55.047Z,55.20
2023-05-04T11:49:26.813Z,55.10
2023-05-04T11:52:06.740Z,54.50
2023-05-04T11:54:35.543Z,55.90
2023-05-04T11:57:06.523Z,56.50
2023-05-04T11:59:35.143Z,56.80
2023-05-04T12:02:06.038Z,55.90
2023-05-04T12:04:36.154Z,54.30
2023-05-04T12:07:08.708Z,53.30
2023-05-04T12:09:46.843Z,54.50
2023-05-04T12:12:19.069Z,54.80
2023-05-04T12:14:52.193Z,54.80
2023-05-04T12:17:21.490Z,53.30
2023-05-04T12:19:54.790Z,52.30
2023-05-04T12:22:29.846Z,51.80
2023-05-04T12:24:59.728Z,49.90
2023-05-04T12:27:28.982Z,50.70
2023-05-04T12:29:57.803Z,51.90
2023-05-04T12:32:26.634Z,52.60
2023-05-04T12:34:56.741Z,53.30
2023-05-04T12:37:25.445Z,53.30
2023-05-04T12:39:56.369Z,52.80
2023-05-04T12:42:24.915Z,54.60
2023-05-04T12:44:55.627Z,55.20
2023-05-04T12:47:24.827Z,55.10
2023-05-04T12:49:54.502Z,54.70
2023-05-04T12:52:24.498Z,54.00
2023-05-04T12:54:53.120Z,52.80
2023-05-04T12:57:24.364Z,53.00
2023-05-04T12:59:52.948Z,53.40
2023-05-04T13:02:21.597Z,53.60
2023-05-04T13:04:50.178Z,54.90
2023-05-04T13:07:18.687Z,54.10
2023-05-04T13:09:51.061Z,55.10
2023-05-04T13:12:19.656Z,54.80
2023-05-04T13:14:48.222Z,54.60
2023-05-04T13:17:19.352Z,54.10
2023-05-04T13:19:48.789Z,54.90
2023-05-04T13:22:17.324Z,56.20
2023-05-04T13:24:45.894Z,56.30
2023-05-04T13:27:15.968Z,56.50
2023-05-04T13:29:44.690Z,56.40
2023-05-04T13:32:13.409Z,56.20
2023-05-04T13:34:42.160Z,57.00
2023-05-04T13:37:12.482Z,56.30
2023-05-04T13:39:42.022Z,57.20
2023-05-04T13:42:12.665Z,57.70
2023-05-04T13:44:45.305Z,58.30
2023-05-04T13:47:13.811Z,59.50
2023-05-04T13:49:42.581Z,59.90
2023-05-04T13:52:11.212Z,60.40
2023-05-04T13:54:40.257Z,61.30
2023-05-04T13:57:08.670Z,61.40
2023-05-04T13:59:39.390Z,62.90
2023-05-04T14:02:11.489Z,61.90
2023-05-04T14:04:44.412Z,63.50
2023-05-04T14:07:12.901Z,64.20
2023-05-04T14:09:41.538Z,62.70
2023-05-04T14:12:10.678Z,64.00
2023-05-04T14:14:41.551Z,63.40
2023-05-04T14:17:11.781Z,63.20
2023-05-04T14:19:40.510Z,62.70
2023-05-04T14:22:09.167Z,62.80
2023-05-04T14:24:40.135Z,62.80
2023-05-04T14:27:08.687Z,61.00
2023-05-04T14:29:37.750Z,59.10
2023-05-04T14:32:06.697Z,59.70
2023-05-04T14:34:37.334Z,60.30
2023-05-04T14:37:06.019Z,52.30
2023-05-04T14:39:34.604Z,49.60
2023-05-04T14:42:03.355Z,50.20
2023-05-04T14:44:31.974Z,48.80
2023-05-04T14:47:02.537Z,54.30
2023-05-04T14:49:37.395Z,57.00
2023-05-04T14:52:07.972Z,58.40
2023-05-04T14:54:36.584Z,58.60
2023-05-04T14:57:09.253Z,57.90
2023-05-04T14:59:38.725Z,59.10
2023-05-04T15:02:09.430Z,58.60
2023-05-04T15:04:38.114Z,58.80
2023-05-04T15:07:08.685Z,60.10
2023-05-04T15:09:38.214Z,61.80
2023-05-04T15:12:07.746Z,62.30
2023-05-04T15:14:37.738Z,60.80
2023-05-04T15:17:08.625Z,60.10
2023-05-04T15:19:38.794Z,61.20
2023-05-04T15:22:09.513Z,60.70
2023-05-04T15:24:38.289Z,61.70
2023-05-04T15:27:06.826Z,62.50
2023-05-04T15:29:35.524Z,62.50
2023-05-04T15:32:04.330Z,61.60
2023-05-04T15:34:33.162Z,61.60
2023-05-04T15:37:01.775Z,61.70
2023-05-04T15:39:32.219Z,61.60
2023-05-04T15:42:01.371Z,61.90
2023-05-04T15:44:30.171Z,62.10
2023-05-04T15:46:58.789Z,62.60
2023-05-04T15:49:27.732Z,62.80
2023-05-04T15:51:58.812Z,63.00
2023-05-04T15:54:30.991Z,62.70
2023-05-04T15:57:00.154Z,62.60
2023-05-04T15:59:28.695Z,62.70
2023-05-04T16:01:57.308Z,63.60
2023-05-04T16:04:26.077Z,63.40
2023-05-04T16:06:54.804Z,63.50
2023-05-04T16:09:23.393Z,63.70
2023-05-04T16:11:53.513Z,63.90
2023-05-04T16:14:22.157Z,63.00
2023-05-04T16:16:50.842Z,62.90
2023-05-04T16:19:19.463Z,63.60
2023-05-04T16:21:48.009Z,64.20
2023-05-04T16:24:18.871Z,64.60
2023-05-04T16:26:51.703Z,65.10
2023-05-04T16:29:24.509Z,65.10
2023-05-04T16:31:56.319Z,65.50
2023-05-04T16:34:25.090Z,65.90
2023-05-04T16:36:53.675Z,65.50
2023-05-04T16:39:31.546Z,65.90
2023-05-04T16:42:00.281Z,66.10
2023-05-04T16:44:31.386Z,66.50
2023-05-04T16:47:00.364Z,66.80
2023-05-04T16:49:29.013Z,67.70
2023-05-04T16:51:59.645Z,68.10
2023-05-04T16:54:28.292Z,68.50
2023-05-04T16:56:57.107Z,69.30
2023-05-04T16:59:26.118Z,69.80
2023-05-04T17:01:56.521Z,69.80
2023-05-04T17:04:27.558Z,69.80
2023-05-04T17:06:56.149Z,69.90
2023-05-04T17:09:24.795Z,69.90
2023-05-04T17:11:53.406Z,70.30
2023-05-04T17:14:22.310Z,70.50
2023-05-04T17:16:50.965Z,72.10
2023-05-04T17:19:20.954Z,72.90
2023-05-04T17:21:50.210Z,73.70
2023-05-04T17:24:19.410Z,74.60
2023-05-04T17:26:48.108Z,75.00
2023-05-04T17:29:16.930Z,75.60
2023-05-04T17:31:45.712Z,76.30
2023-05-04T17:34:16.559Z,76.90
2023-05-04T17:36:47.192Z,77.40
2023-05-04T17:39:18.812Z,78.20
2023-05-04T17:41:49.001Z,78.40
2023-05-04T17:44:17.981Z,78.50
2023-05-04T17:46:47.382Z,78.70
2023-05-04T17:49:19.197Z,78.80
2023-05-04T17:51:50.020Z,79.20
2023-05-04T17:54:18.741Z,79.20
2023-05-04T17:56:47.405Z,79.50
2023-05-04T17:59:16.835Z,79.80
2023-05-04T18:01:45.930Z,80.70
2023-05-04T18:04:14.491Z,79.90
2023-05-04T18:06:43.568Z,79.70
2023-05-04T18:09:13.498Z,79.60
2023-05-04T18:11:42.068Z,79.00
2023-05-04T18:14:10.648Z,79.10
2023-05-04T18:16:39.448Z,78.80
2023-05-04T18:19:08.158Z,78.50
2023-05-04T18:21:37.768Z,78.50
2023-05-04T18:24:09.926Z,79.30
2023-05-04T18:26:39.933Z,77.90
2023-05-04T18:29:18.441Z,78.10
2023-05-04T18:31:51.092Z,77.90
2023-05-04T18:34:19.850Z,77.80
2023-05-04T18:36:49.340Z,77.30
2023-05-04T18:39:18.912Z,77.20
2023-05-04T18:41:51.008Z,76.10
2023-05-04T18:44:22.208Z,75.70
2023-05-04T18:46:52.868Z,75.60
2023-05-04T18:49:21.675Z,75.00
2023-05-04T18:51:50.240Z,73.50
2023-05-04T18:54:21.195Z,72.70
2023-05-04T18:56:51.170Z,72.10
2023-05-04T18:59:19.996Z,72.00
2023-05-04T19:01:50.763Z,71.50
2023-05-04T19:04:19.552Z,71.40
2023-05-04T19:06:51.733Z,71.40
2023-05-04T19:09:23.541Z,69.70
2023-05-04T19:11:55.938Z,70.50
2023-05-04T19:14:25.349Z,66.60
2023-05-04T19:16:54.004Z,64.20
2023-05-04T19:19:22.741Z,59.40
2023-05-04T19:21:52.338Z,57.60
2023-05-04T19:24:21.159Z,57.40
2023-05-04T19:26:49.854Z,56.60
2023-05-04T19:29:19.915Z,56.00
2023-05-04T19:31:48.587Z,56.50
2023-05-04T19:34:17.989Z,56.40
2023-05-04T19:36:46.713Z,56.30
2023-05-04T19:39:16.832Z,56.40
2023-05-04T19:41:45.382Z,56.60
2023-05-04T19:44:14.068Z,56.90
2023-05-04T19:46:45.449Z,56.80
2023-05-04T19:49:14.090Z,57.20
2023-05-04T19:51:42.627Z,57.40
2023-05-04T19:54:13.363Z,57.90
2023-05-04T19:56:42.004Z,58.20
2023-05-04T19:59:10.584Z,58.90
2023-05-04T20:01:39.206Z,59.20
2023-05-04T20:04:11.952Z,59.70
2023-05-04T20:06:40.571Z,60.00
2023-05-04T20:09:11.594Z,60.30
2023-05-04T20:11:40.237Z,60.70
2023-05-04T20:14:08.896Z,61.40
2023-05-04T20:16:38.348Z,61.90
2023-05-04T20:19:10.427Z,62.30
2023-05-04T20:21:39.183Z,62.70
2023-05-04T20:24:08.660Z,63.10
2023-05-04T20:26:37.308Z,63.60
2023-05-04T20:29:08.761Z,64.10
2023-05-04T20:31:37.600Z,64.20
2023-05-04T20:34:12.179Z,64.50
2023-05-04T20:36:42.378Z,65.10
2023-05-04T20:39:11.278Z,65.20
2023-05-04T20:41:40.769Z,65.40
2023-05-04T20:44:09.398Z,66.10
2023-05-04T20:46:38.138Z,66.60
2023-05-04T20:49:06.832Z,66.60
2023-05-04T20:51:35.619Z,67.40
2023-05-04T20:54:08.057Z,67.60
2023-05-04T20:56:36.604Z,67.90
2023-05-04T20:59:08.147Z,67.90
2023-05-04T21:01:36.771Z,68.10
2023-05-04T21:04:05.824Z,68.40
2023-05-04T21:06:34.622Z,68.90
2023-05-04T21:09:04.426Z,69.60
2023-05-04T21:11:36.877Z,69.80
2023-05-04T21:14:06.927Z,70.20
2023-05-04T21:16:35.745Z,70.80
2023-05-04T21:19:04.393Z,70.80
2023-05-04T21:21:34.713Z,71.10
2023-05-04T21:24:03.334Z,71.50
2023-05-04T21:26:33.238Z,72.00
2023-05-04T21:29:01.794Z,72.30
2023-05-04T21:31:31.017Z,72.70
2023-05-04T21:33:59.663Z,73.00
2023-05-04T21:36:30.306Z,73.50
2023-05-04T21:38:59.193Z,73.50
2023-05-04T21:41:27.778Z,73.60
2023-05-04T21:43:57.858Z,74.00
2023-05-04T21:46:26.423Z,74.30
2023-05-04T21:48:55.166Z,74.50
2023-05-04T21:51:23.723Z,74.90
2023-05-04T21:53:52.234Z,75.20
2023-05-04T21:56:21.166Z,75.20
2023-05-04T21:58:51.952Z,75.20
2023-05-04T22:01:24.161Z,75.20
2023-05-04T22:03:53.158Z,75.80
2023-05-04T22:06:24.503Z,76.20
2023-05-04T22:08:55.686Z,76.20
2023-05-04T22:11:24.361Z,76.30
2023-05-04T22:13:55.414Z,76.20
2023-05-04T22:16:25.475Z,76.70
2023-05-04T22:18:54.289Z,77.00
2023-05-04T22:21:26.739Z,76.80
2023-05-04T22:23:55.321Z,77.50
2023-05-04T22:26:23.815Z,78.00
2023-05-04T22:28:54.736Z,78.60
2023-05-04T22:31:24.791Z,78.90
2023-05-04T22:33:53.436Z,79.10
2023-05-04T22:36:24.347Z,79.30
2023-05-04T22:38:52.957Z,79.50
2023-05-04T22:41:21.464Z,79.70
2023-05-04T22:43:50.056Z,80.10
2023-05-04T22:46:18.898Z,80.20
2023-05-04T22:48:48.997Z,80.40
2023-05-04T22:51:17.561Z,80.70
2023-05-04T22:53:46.160Z,80.80
2023-05-04T22:56:16.774Z,80.70
2023-05-04T22:58:47.030Z,81.00
2023-05-04T23:01:15.662Z,81.10
2023-05-04T23:03:45.225Z,81.40
2023-05-04T23:06:15.770Z,81.50
2023-05-04T23:08:45.515Z,82.00
2023-05-04T23:11:14.192Z,82.70
2023-05-04T23:13:42.921Z,81.60
2023-05-04T23:16:11.506Z,81.50
2023-05-04T23:18:40.071Z,81.70
2023-05-04T23:21:08.598Z,82.20
2023-05-04T23:23:38.682Z,82.90
2023-05-04T23:26:07.178Z,83.40
2023-05-04T23:28:35.876Z,83.70
2023-05-04T23:31:06.611Z,84.20
2023-05-04T23:33:37.555Z,83.90
2023-05-04T23:36:09.158Z,84.50
2023-05-04T23:38:39.084Z,84.90
2023-05-04T23:41:07.690Z,85.50
2023-05-04T23:43:36.411Z,85.90
2023-05-04T23:46:06.537Z,86.00
2023-05-04T23:48:37.627Z,86.40
2023-05-04T23:51:09.143Z,86.90
2023-05-04T23:53:39.248Z,87.40
2023-05-04T23:56:08.793Z,88.10
2023-05-04T23:58:37.440Z,88.80
